createdAt,value
2023-05-10T00:01:30.226Z,14.84
2023-05-10T00:03:33.658Z,14.86
2023-05-10T00:05:37.219Z,14.83
2023-05-10T00:07:45.581Z,14.79
2023-05-10T00:09:48.953Z,14.20
2023-05-10T00:11:52.317Z,14.90
2023-05-10T00:13:55.693Z,14.49
2023-05-10T00:15:59.262Z,14.73
2023-05-10T00:18:02.754Z,14.80
2023-05-10T00:20:07.338Z,14.78
2023-05-10T00:22:11.387Z,14.76
2023-05-10T00:24:16.054Z,14.89
2023-05-10T00:26:19.389Z,14.83
2023-05-10T00:28:29.400Z,14.79
2023-05-10T00:30:33.674Z,14.81
2023-05-10T00:32:38.808Z,14.92
2023-05-10T00:34:42.187Z,15.00
2023-05-10T00:36:45.499Z,14.88
2023-05-10T00:38:48.869Z,14.86
2023-05-10T00:40:53.629Z,14.97
2023-05-10T00:43:03.935Z,15.05
2023-05-10T00:45:09.004Z,15.05
2023-05-10T00:47:12.830Z,15.09
2023-05-10T00:49:16.447Z,15.05
2023-05-10T00:51:20.146Z,14.89
2023-05-10T00:53:23.994Z,14.68
2023-05-10T00:55:27.614Z,14.85
2023-05-10T00:57:32.684Z,14.86
2023-05-10T00:59:36.183Z,14.87
2023-05-10T01:01:40.070Z,15.01
2023-05-10T01:03:43.744Z,15.07
2023-05-10T01:05:47.047Z,15.09
2023-05-10T01:07:50.510Z,14.97
2023-05-10T01:09:53.958Z,15.00
2023-05-10T01:11:58.547Z,15.05
2023-05-10T01:14:04.431Z,15.04
2023-05-10T01:16:08.816Z,15.10
2023-05-10T01:18:12.418Z,15.05
2023-05-10T01:20:17.244Z,15.08
2023-05-10T01:22:57.303Z,14.91
2023-05-10T01:25:18.171Z,15.01
2023-05-10T01:27:53.391Z,14.87
2023-05-10T01:30:34.202Z,14.74
2023-05-10T01:32:45.796Z,14.82
2023-05-10T01:34:58.368Z,14.02
2023-05-10T01:37:08.038Z,14.72
2023-05-10T01:39:17.887Z,14.81
2023-05-10T01:41:30.236Z,14.80
2023-05-10T01:43:44.793Z,14.86
2023-05-10T01:45:56.807Z,14.91
2023-05-10T01:48:08.271Z,14.86
2023-05-10T01:50:17.148Z,14.87
2023-05-10T01:52:24.474Z,14.89
2023-05-10T01:54:30.763Z,14.91
2023-05-10T01:56:36.984Z,14.63
2023-05-10T01:58:43.187Z,14.72
2023-05-10T02:00:49.197Z,14.65
2023-05-10T02:02:54.763Z,14.68
2023-05-10T02:05:01.235Z,14.68
2023-05-10T02:07:05.562Z,14.66
2023-05-10T02:09:11.057Z,14.66
2023-05-10T02:11:16.033Z,14.67
2023-05-10T02:13:20.677Z,14.66
2023-05-10T02:15:26.661Z,14.65
2023-05-10T02:17:32.498Z,14.65
2023-05-10T02:19:37.940Z,14.72
2023-05-10T02:21:44.214Z,14.71
2023-05-10T02:23:50.341Z,14.76
2023-05-10T02:25:56.180Z,14.82
2023-05-10T02:28:02.001Z,14.85
2023-05-10T02:30:09.135Z,14.81
2023-05-10T02:32:14.068Z,14.84
2023-05-10T02:34:17.591Z,14.85
2023-05-10T02:36:23.441Z,14.83
2023-05-10T02:38:29.319Z,14.87
2023-05-10T02:40:35.476Z,14.90
2023-05-10T02:42:40.606Z,14.95
2023-05-10T02:44:45.283Z,14.95
2023-05-10T02:46:49.148Z,15.02
2023-05-10T02:48:52.617Z,15.03
2023-05-10T02:50:58.108Z,15.05
2023-05-10T02:53:04.153Z,15.11
2023-05-10T02:55:11.956Z,15.13
2023-05-10T02:57:20.226Z,15.15
2023-05-10T02:59:24.022Z,15.19
2023-05-10T03:01:27.548Z,15.19
2023-05-10T03:03:30.944Z,15.25
2023-05-10T03:05:34.284Z,15.27
2023-05-10T03:07:40.227Z,15.31
2023-05-10T03:09:44.232Z,15.37
2023-05-10T03:11:58.684Z,15.33
2023-05-10T03:14:13.349Z,15.28
2023-05-10T03:16:21.977Z,15.29
2023-05-10T03:18:31.412Z,15.36
2023-05-10T03:20:38.490Z,15.44
2023-05-10T03:22:47.479Z,15.46
2023-05-10T03:24:51.542Z,15.43
2023-05-10T03:27:00.946Z,15.50
2023-05-10T03:29:07.002Z,15.43
2023-05-10T03:31:11.104Z,15.44
2023-05-10T03:33:15.179Z,15.43
2023-05-10T03:35:21.819Z,15.35
2023-05-10T03:37:25.250Z,15.18
2023-05-10T03:39:28.671Z,15.36
2023-05-10T03:41:35.546Z,15.32
2023-05-10T03:43:42.121Z,14.65
2023-05-10T03:45:45.561Z,15.16
2023-05-10T03:47:49.032Z,15.09
2023-05-10T03:49:52.619Z,15.06
2023-05-10T03:51:56.022Z,15.06
2023-05-10T03:53:59.387Z,15.11
2023-05-10T03:56:02.820Z,15.14
2023-05-10T03:58:06.232Z,15.18
2023-05-10T04:00:13.625Z,15.21
2023-05-10T04:02:19.923Z,15.16
2023-05-10T04:04:24.122Z,15.18
2023-05-10T04:06:27.604Z,15.21
2023-05-10T04:08:32.523Z,15.26
2023-05-10T04:10:36.079Z,15.31
2023-05-10T04:12:39.402Z,15.36
2023-05-10T04:14:43.101Z,15.39
2023-05-10T04:16:47.818Z,15.24
2023-05-10T04:18:54.374Z,15.21
2023-05-10T04:20:57.856Z,15.22
2023-05-10T04:23:05.153Z,15.25
2023-05-10T04:25:11.772Z,15.24
2023-05-10T04:27:15.258Z,15.24
2023-05-10T04:29:18.563Z,15.21
2023-05-10T04:31:22.550Z,15.07
2023-05-10T04:33:27.225Z,15.10
2023-05-10T04:35:30.640Z,15.06
2023-05-10T04:37:34.011Z,14.88
2023-05-10T04:39:37.341Z,14.90
2023-05-10T04:41:40.738Z,14.91
2023-05-10T04:43:44.067Z,14.95
2023-05-10T04:45:47.348Z,14.90
2023-05-10T04:47:50.776Z,14.94
2023-05-10T04:49:55.485Z,14.88
2023-05-10T04:51:58.818Z,14.08
2023-05-10T04:54:06.405Z,14.55
2023-05-10T04:56:10.217Z,14.64
2023-05-10T04:58:13.539Z,14.62
2023-05-10T05:00:17.958Z,14.66
2023-05-10T05:02:21.490Z,14.60
2023-05-10T05:04:25.035Z,14.51
2023-05-10T05:06:29.878Z,14.32
2023-05-10T05:08:33.245Z,14.53
2023-05-10T05:10:36.592Z,14.47
2023-05-10T05:12:39.989Z,14.53
2023-05-10T05:14:43.348Z,14.48
2023-05-10T05:16:46.646Z,14.48
2023-05-10T05:18:49.970Z,14.49
2023-05-10T05:20:53.290Z,14.22
2023-05-10T05:22:57.991Z,14.20
2023-05-10T05:25:03.370Z,14.44
2023-05-10T05:27:06.802Z,14.62
2023-05-10T05:29:10.247Z,14.58
2023-05-10T05:31:13.608Z,14.64
2023-05-10T05:33:17.589Z,14.62
2023-05-10T05:35:20.926Z,14.68
2023-05-10T05:37:25.443Z,14.70
2023-05-10T05:39:30.257Z,14.57
2023-05-10T05:41:33.550Z,14.63
2023-05-10T05:43:38.349Z,14.62
2023-05-10T05:45:42.038Z,14.55
2023-05-10T05:47:45.495Z,14.55
2023-05-10T05:49:48.775Z,14.61
2023-05-10T05:51:52.104Z,14.61
2023-05-10T05:53:55.551Z,14.62
2023-05-10T05:56:01.084Z,14.61
2023-05-10T05:58:04.620Z,14.67
2023-05-10T06:00:09.421Z,14.56
2023-05-10T06:02:18.486Z,14.65
2023-05-10T06:04:22.072Z,14.64
2023-05-10T06:06:25.561Z,14.67
2023-05-10T06:08:28.951Z,14.77
2023-05-10T06:10:32.456Z,14.82
2023-05-10T06:12:37.214Z,14.81
2023-05-10T06:14:40.582Z,14.63
2023-05-10T06:16:44.127Z,14.69
2023-05-10T06:18:47.594Z,14.70
2023-05-10T06:20:51.561Z,14.81
2023-05-10T06:22:54.842Z,14.95
2023-05-10T06:24:58.223Z,14.94
2023-05-10T06:27:05.091Z,14.95
2023-05-10T06:29:09.802Z,14.92
2023-05-10T06:31:13.360Z,14.30
2023-05-10T06:33:17.542Z,14.90
2023-05-10T06:35:21.070Z,14.80
2023-05-10T06:37:24.405Z,14.73
2023-05-10T06:39:27.717Z,14.61
2023-05-10T06:41:31.216Z,14.76
2023-05-10T06:43:34.673Z,14.84
2023-05-10T06:45:39.433Z,14.95
2023-05-10T06:47:43.327Z,15.00
2023-05-10T06:49:46.798Z,14.94
2023-05-10T06:51:50.354Z,14.58
2023-05-10T06:53:53.878Z,14.72
2023-05-10T06:55:57.321Z,14.50
2023-05-10T06:58:00.823Z,14.56
2023-05-10T07:00:06.111Z,14.51
2023-05-10T07:02:11.081Z,14.36
2023-05-10T07:04:14.949Z,14.42
2023-05-10T07:06:29.389Z,14.51
2023-05-10T07:08:36.742Z,14.43
2023-05-10T07:10:40.067Z,14.61
2023-05-10T07:12:43.465Z,14.56
2023-05-10T07:14:47.552Z,14.62
2023-05-10T07:16:50.998Z,14.65
2023-05-10T07:18:55.660Z,14.49
2023-05-10T07:20:59.402Z,14.38
2023-05-10T07:23:03.130Z,14.52
2023-05-10T07:25:07.505Z,14.54
2023-05-10T07:27:11.237Z,14.61
2023-05-10T07:29:14.807Z,14.64
2023-05-10T07:31:18.092Z,14.74
2023-05-10T07:33:21.640Z,14.81
2023-05-10T07:35:26.340Z,14.93
2023-05-10T07:37:29.659Z,14.88
2023-05-10T07:39:32.990Z,14.78
2023-05-10T07:41:36.361Z,14.82
2023-05-10T07:43:39.711Z,14.81
2023-05-10T07:45:43.271Z,14.65
2023-05-10T07:47:46.759Z,14.92
2023-05-10T07:49:50.134Z,14.96
2023-05-10T07:51:54.796Z,15.06
2023-05-10T07:53:58.897Z,15.02
2023-05-10T07:56:23.650Z,14.96
2023-05-10T07:58:27.229Z,14.98
2023-05-10T08:00:30.682Z,15.07
2023-05-10T08:02:34.884Z,15.14
2023-05-10T08:04:38.456Z,15.08
2023-05-10T08:06:42.470Z,15.16
2023-05-10T08:08:50.207Z,15.10
2023-05-10T08:10:53.537Z,15.17
2023-05-10T08:12:56.853Z,15.27
2023-05-10T08:15:00.149Z,15.21
2023-05-10T08:17:03.408Z,15.21
2023-05-10T08:19:06.882Z,15.31
2023-05-10T08:21:12.189Z,15.40
2023-05-10T08:23:15.501Z,15.45
2023-05-10T08:25:20.250Z,15.49
2023-05-10T08:27:23.609Z,15.45
2023-05-10T08:29:28.550Z,15.65
2023-05-10T08:31:34.020Z,15.65
2023-05-10T08:33:37.421Z,15.42
2023-05-10T08:35:40.855Z,15.41
2023-05-10T08:37:44.199Z,15.31
2023-05-10T08:39:48.897Z,15.34
2023-05-10T08:41:56.212Z,15.41
2023-05-10T08:44:00.131Z,15.49
2023-05-10T08:46:03.748Z,15.30
2023-05-10T08:48:09.266Z,15.36
2023-05-10T08:50:13.536Z,15.42
2023-05-10T08:52:18.386Z,15.33
2023-05-10T08:54:21.795Z,15.42
2023-05-10T08:56:26.038Z,15.39
2023-05-10T08:58:31.785Z,15.38
2023-05-10T09:00:35.945Z,15.32
2023-05-10T09:02:39.547Z,15.30
2023-05-10T09:04:43.027Z,15.46
2023-05-10T09:06:46.340Z,15.60
2023-05-10T09:08:49.971Z,15.56
2023-05-10T09:10:53.705Z,15.64
2023-05-10T09:12:59.621Z,15.77
2023-05-10T09:15:06.892Z,16.00
2023-05-10T09:17:11.677Z,16.03
2023-05-10T09:19:15.771Z,15.97
2023-05-10T09:21:19.258Z,16.05
2023-05-10T09:23:22.982Z,16.08
2023-05-10T09:25:26.354Z,16.06
2023-05-10T09:27:29.722Z,15.97
2023-05-10T09:29:41.503Z,15.87
2023-05-10T09:31:52.171Z,15.81
2023-05-10T09:33:56.063Z,15.87
2023-05-10T09:36:09.237Z,15.96
2023-05-10T09:38:12.562Z,15.71
2023-05-10T09:40:17.203Z,15.75
2023-05-10T09:42:20.769Z,15.85
2023-05-10T09:44:24.044Z,15.77
2023-05-10T09:46:27.514Z,15.80
2023-05-10T09:48:32.378Z,15.73
2023-05-10T09:50:36.009Z,15.57
2023-05-10T09:52:49.282Z,15.66
2023-05-10T09:54:55.744Z,15.45
2023-05-10T09:56:59.170Z,15.46
2023-05-10T09:59:05.641Z,15.54
2023-05-10T10:01:13.028Z,15.52
2023-05-10T10:03:17.606Z,15.57
2023-05-10T10:05:22.503Z,15.50
2023-05-10T10:07:27.250Z,15.45
2023-05-10T10:09:31.103Z,15.65
2023-05-10T10:11:35.919Z,15.76
2023-05-10T10:13:39.400Z,15.91
2023-05-10T10:15:45.046Z,15.88
2023-05-10T10:17:50.144Z,15.70
2023-05-10T10:19:53.622Z,15.64
2023-05-10T10:21:59.960Z,15.59
2023-05-10T10:24:06.292Z,15.74
2023-05-10T10:26:10.016Z,15.83
2023-05-10T10:28:28.250Z,15.72
2023-05-10T10:30:38.008Z,15.76
2023-05-10T10:33:05.616Z,15.43
2023-05-10T10:35:13.891Z,16.17
2023-05-10T10:37:18.898Z,16.22
2023-05-10T10:39:22.826Z,16.27
2023-05-10T10:41:31.128Z,16.07
2023-05-10T10:43:34.572Z,15.80
2023-05-10T10:45:42.344Z,15.68
2023-05-10T10:47:47.204Z,15.69
2023-05-10T10:49:52.602Z,15.83
2023-05-10T10:52:15.013Z,15.98
2023-05-10T10:54:29.782Z,16.05
2023-05-10T10:56:34.359Z,16.13
2023-05-10T10:58:40.092Z,16.31
2023-05-10T11:00:45.572Z,16.32
2023-05-10T11:02:50.772Z,16.40
2023-05-10T11:04:54.179Z,16.47
2023-05-10T11:07:18.641Z,16.43
2023-05-10T11:09:26.908Z,16.50
2023-05-10T11:11:31.124Z,16.49
2023-05-10T11:13:36.928Z,16.53
2023-05-10T11:15:41.994Z,16.48
2023-05-10T11:17:48.357Z,16.43
2023-05-10T11:20:11.016Z,16.50
2023-05-10T11:22:15.699Z,16.53
2023-05-10T11:24:20.555Z,16.51
2023-05-10T11:26:26.591Z,16.64
2023-05-10T11:28:30.322Z,16.51
2023-05-10T11:30:33.963Z,16.40
2023-05-10T11:32:39.161Z,16.36
2023-05-10T11:34:42.760Z,16.31
2023-05-10T11:36:52.796Z,16.29
2023-05-10T11:38:57.341Z,16.42
2023-05-10T11:41:00.765Z,16.23
2023-05-10T11:43:06.632Z,16.25
2023-05-10T11:45:10.785Z,16.22
2023-05-10T11:47:16.436Z,16.19
2023-05-10T11:49:20.036Z,16.10
2023-05-10T11:51:25.018Z,16.17
2023-05-10T11:53:29.183Z,16.20
2023-05-10T11:55:35.896Z,16.04
2023-05-10T11:57:42.190Z,16.03
2023-05-10T11:59:47.667Z,16.19
2023-05-10T12:01:51.239Z,15.67
2023-05-10T12:03:56.480Z,16.29
2023-05-10T12:06:00.865Z,16.48
2023-05-10T12:08:14.495Z,16.57
2023-05-10T12:10:19.149Z,16.72
2023-05-10T12:12:22.989Z,16.79
2023-05-10T12:14:26.484Z,16.85
2023-05-10T12:16:32.077Z,16.91
2023-05-10T12:18:35.900Z,17.09
2023-05-10T12:20:39.848Z,17.39
2023-05-10T12:22:43.319Z,17.54
2023-05-10T12:24:47.737Z,17.66
2023-05-10T12:26:52.460Z,17.96
2023-05-10T12:28:56.133Z,18.40
2023-05-10T12:31:01.155Z,18.79
2023-05-10T12:33:12.218Z,18.85
2023-05-10T12:35:16.185Z,18.70
2023-05-10T12:37:19.581Z,18.61
2023-05-10T12:39:23.032Z,18.42
2023-05-10T12:41:26.433Z,18.33
2023-05-10T12:43:30.236Z,18.06
2023-05-10T12:45:33.836Z,18.24
2023-05-10T12:47:38.055Z,18.20
2023-05-10T12:49:43.151Z,17.97
2023-05-10T12:51:46.510Z,18.15
2023-05-10T12:53:49.929Z,17.99
2023-05-10T12:55:53.386Z,18.12
2023-05-10T12:57:56.740Z,18.10
2023-05-10T13:00:00.212Z,18.17
2023-05-10T13:02:03.848Z,18.37
2023-05-10T13:04:07.277Z,18.16
2023-05-10T13:06:12.133Z,18.10
2023-05-10T13:08:15.657Z,18.28
2023-05-10T13:10:19.564Z,18.33
2023-05-10T13:12:23.174Z,18.12
2023-05-10T13:14:27.222Z,18.00
2023-05-10T13:16:30.880Z,18.15
2023-05-10T13:18:34.329Z,18.14
2023-05-10T13:20:38.036Z,18.29
2023-05-10T13:22:43.335Z,18.51
2023-05-10T13:24:46.786Z,18.56
2023-05-10T13:26:50.500Z,18.46
2023-05-10T13:28:53.871Z,18.64
2023-05-10T13:30:57.271Z,18.86
2023-05-10T13:33:00.921Z,19.08
2023-05-10T13:35:05.344Z,18.77
2023-05-10T13:37:08.735Z,19.36
2023-05-10T13:39:13.560Z,19.79
2023-05-10T13:41:16.964Z,19.94
2023-05-10T13:43:20.644Z,20.22
2023-05-10T13:45:24.249Z,20.73
2023-05-10T13:47:28.056Z,20.97
2023-05-10T13:49:31.481Z,21.18
2023-05-10T13:51:36.573Z,21.42
2023-05-10T13:53:40.339Z,21.70
2023-05-10T13:55:45.099Z,21.61
2023-05-10T13:57:48.682Z,21.60
2023-05-10T13:59:52.443Z,20.97
2023-05-10T14:01:55.886Z,20.99
2023-05-10T14:03:59.654Z,20.95
2023-05-10T14:06:03.461Z,21.03
2023-05-10T14:08:06.855Z,21.16
2023-05-10T14:10:10.796Z,21.36
2023-05-10T14:12:16.403Z,21.57
2023-05-10T14:14:19.852Z,21.58
2023-05-10T14:16:23.417Z,21.44
2023-05-10T14:18:27.140Z,21.31
2023-05-10T14:20:30.984Z,20.95
2023-05-10T14:22:34.456Z,20.57
2023-05-10T14:24:38.022Z,19.83
2023-05-10T14:26:41.500Z,19.94
2023-05-10T14:28:46.347Z,19.73
2023-05-10T14:30:50.003Z,19.59
2023-05-10T14:32:54.979Z,19.44
2023-05-10T14:34:58.510Z,19.28
2023-05-10T14:37:02.131Z,19.14
2023-05-10T14:39:05.964Z,19.13
2023-05-10T14:41:11.251Z,19.05
2023-05-10T14:43:15.345Z,18.87
2023-05-10T14:45:20.541Z,18.78
2023-05-10T14:47:24.157Z,18.75
2023-05-10T14:49:28.408Z,18.75
2023-05-10T14:51:32.701Z,18.72
2023-05-10T14:53:36.627Z,18.73
2023-05-10T14:55:40.324Z,18.81
2023-05-10T14:57:45.001Z,18.89
2023-05-10T14:59:49.014Z,18.88
2023-05-10T15:01:54.328Z,18.91
2023-05-10T15:03:57.887Z,18.90
2023-05-10T15:06:01.762Z,18.83
2023-05-10T15:08:05.440Z,18.78
2023-05-10T15:10:10.581Z,18.70
2023-05-10T15:12:14.238Z,18.63
2023-05-10T15:14:17.606Z,18.57
2023-05-10T15:16:21.213Z,18.46
2023-05-10T15:18:26.745Z,18.45
2023-05-10T15:20:30.256Z,18.35
2023-05-10T15:22:34.433Z,18.23
2023-05-10T15:24:38.033Z,18.18
2023-05-10T15:26:41.399Z,18.19
2023-05-10T15:28:44.944Z,18.24
2023-05-10T15:30:48.422Z,18.26
2023-05-10T15:32:51.847Z,18.27
2023-05-10T15:34:56.995Z,18.27
2023-05-10T15:37:00.453Z,18.21
2023-05-10T15:39:04.847Z,18.30
2023-05-10T15:41:08.206Z,18.42
2023-05-10T15:43:11.870Z,18.49
2023-05-10T15:45:16.203Z,18.48
2023-05-10T15:47:20.074Z,18.59
2023-05-10T15:49:23.591Z,18.50
2023-05-10T15:51:28.550Z,18.46
2023-05-10T15:53:32.002Z,18.32
2023-05-10T15:55:35.415Z,18.45
2023-05-10T15:57:38.864Z,18.47
2023-05-10T15:59:42.900Z,18.63
2023-05-10T16:01:46.410Z,18.82
2023-05-10T16:03:49.920Z,19.00
2023-05-10T16:05:53.739Z,18.38
2023-05-10T16:07:58.620Z,19.08
2023-05-10T16:10:04.046Z,19.11
2023-05-10T16:12:07.718Z,19.18
2023-05-10T16:14:11.172Z,19.60
2023-05-10T16:16:14.818Z,19.74
2023-05-10T16:18:18.705Z,20.04
2023-05-10T16:20:22.334Z,20.03
2023-05-10T16:22:28.838Z,19.85
2023-05-10T16:24:33.833Z,19.51
2023-05-10T16:26:41.002Z,19.83
2023-05-10T16:28:44.557Z,20.06
2023-05-10T16:30:48.000Z,20.02
2023-05-10T16:32:51.505Z,20.08
2023-05-10T16:34:54.964Z,20.05
2023-05-10T16:36:58.345Z,20.32
2023-05-10T16:39:01.806Z,20.17
2023-05-10T16:41:07.070Z,19.95
2023-05-10T16:43:10.532Z,19.80
2023-05-10T16:45:14.157Z,19.80
2023-05-10T16:47:17.817Z,19.69
2023-05-10T16:49:21.973Z,19.96
2023-05-10T16:51:26.645Z,19.99
2023-05-10T16:53:31.024Z,19.82
2023-05-10T16:55:34.430Z,19.71
2023-05-10T16:57:39.261Z,19.46
2023-05-10T16:59:42.731Z,19.18
2023-05-10T17:01:47.041Z,18.68
2023-05-10T17:03:50.635Z,18.89
2023-05-10T17:05:54.157Z,18.76
2023-05-10T17:07:58.127Z,18.77
2023-05-10T17:10:01.620Z,18.19
2023-05-10T17:12:05.241Z,18.59
2023-05-10T17:14:10.268Z,18.62
2023-05-10T17:16:13.848Z,18.45
2023-05-10T17:18:18.130Z,18.56
2023-05-10T17:20:21.984Z,18.62
2023-05-10T17:22:25.656Z,18.57
2023-05-10T17:24:29.773Z,18.43
2023-05-10T17:26:34.524Z,18.15
2023-05-10T17:28:37.968Z,17.87
2023-05-10T17:30:42.871Z,17.94
2023-05-10T17:32:46.277Z,17.93
2023-05-10T17:34:49.735Z,17.90
2023-05-10T17:36:53.686Z,17.93
2023-05-10T17:38:57.139Z,18.13
2023-05-10T17:41:00.703Z,18.16
2023-05-10T17:43:04.480Z,18.04
2023-05-10T17:45:09.027Z,18.23
2023-05-10T17:47:14.761Z,18.25
2023-05-10T17:49:18.235Z,18.11
2023-05-10T17:51:21.704Z,18.11
2023-05-10T17:53:25.871Z,18.19
2023-05-10T17:55:30.745Z,18.36
2023-05-10T17:57:36.670Z,18.47
2023-05-10T17:59:40.091Z,17.88
2023-05-10T18:01:43.504Z,18.40
2023-05-10T18:03:50.059Z,18.35
2023-05-10T18:05:55.148Z,18.32
2023-05-10T18:07:58.641Z,18.31
2023-05-10T18:10:02.074Z,18.23
2023-05-10T18:12:06.631Z,18.05
2023-05-10T18:14:10.197Z,17.93
2023-05-10T18:16:13.708Z,18.01
2023-05-10T18:18:17.553Z,18.02
2023-05-10T18:20:22.483Z,17.86
2023-05-10T18:22:27.096Z,17.87
2023-05-10T18:26:36.962Z,17.80
2023-05-10T18:28:40.471Z,17.78
2023-05-10T18:30:44.199Z,17.76
2023-05-10T18:32:47.803Z,17.79
2023-05-10T18:34:51.639Z,17.86
2023-05-10T18:36:57.299Z,17.88
2023-05-10T18:39:00.900Z,17.97
2023-05-10T18:41:04.708Z,17.95
2023-05-10T18:43:08.903Z,17.97
2023-05-10T18:45:13.132Z,17.96
2023-05-10T18:47:16.872Z,17.93
2023-05-10T18:49:20.424Z,17.87
2023-05-10T18:51:25.037Z,17.80
2023-05-10T18:53:30.043Z,17.61
2023-05-10T18:55:33.650Z,17.20
2023-05-10T18:57:41.077Z,16.80
2023-05-10T18:59:44.711Z,16.91
2023-05-10T19:01:50.880Z,16.99
2023-05-10T19:03:54.833Z,16.97
2023-05-10T19:05:58.240Z,16.97
2023-05-10T19:08:01.668Z,16.97
2023-05-10T19:10:07.774Z,17.08
2023-05-10T19:12:11.214Z,17.15
2023-05-10T19:14:14.596Z,17.21
2023-05-10T19:16:18.267Z,16.95
2023-05-10T19:18:21.837Z,17.01
2023-05-10T19:20:25.645Z,16.99
2023-05-10T19:24:36.373Z,16.78
2023-05-10T19:26:41.200Z,16.53
2023-05-10T19:28:45.230Z,16.42
2023-05-10T19:30:49.623Z,16.35
2023-05-10T19:32:53.094Z,16.34
2023-05-10T19:34:56.668Z,16.42
2023-05-10T19:37:00.124Z,16.47
2023-05-10T19:39:03.613Z,16.43
2023-05-10T19:41:07.042Z,16.34
2023-05-10T19:43:11.837Z,16.18
2023-05-10T19:45:16.034Z,16.47
2023-05-10T19:47:20.236Z,16.53
2023-05-10T19:49:23.721Z,16.52
2023-05-10T19:51:27.178Z,16.62
2023-05-10T19:53:31.115Z,16.73
2023-05-10T19:55:36.293Z,16.58
2023-05-10T19:57:39.712Z,16.63
2023-05-10T19:59:44.524Z,15.91
2023-05-10T20:01:47.925Z,16.46
2023-05-10T20:03:51.608Z,16.37
2023-05-10T20:05:55.370Z,16.25
2023-05-10T20:07:58.784Z,16.16
2023-05-10T20:10:02.827Z,16.00
2023-05-10T20:12:06.253Z,15.81
2023-05-10T20:14:10.133Z,15.84
2023-05-10T20:16:14.969Z,15.92
2023-05-10T20:18:18.479Z,16.15
2023-05-10T20:20:22.288Z,16.30
2023-05-10T20:22:26.117Z,16.40
2023-05-10T20:24:29.501Z,15.87
2023-05-10T20:26:32.866Z,16.57
2023-05-10T20:28:36.564Z,16.60
2023-05-10T20:30:40.857Z,16.62
2023-05-10T20:32:45.743Z,16.62
2023-05-10T20:34:49.664Z,16.60
2023-05-10T20:36:53.046Z,16.45
2023-05-10T20:38:56.553Z,16.52
2023-05-10T20:40:59.922Z,16.54
2023-05-10T20:43:03.510Z,16.53
2023-05-10T20:45:08.126Z,16.56
2023-05-10T20:47:12.684Z,16.50
2023-05-10T20:49:18.050Z,16.44
2023-05-10T20:51:21.456Z,16.37
2023-05-10T20:53:24.827Z,16.30
2023-05-10T20:55:28.701Z,16.22
2023-05-10T20:57:32.106Z,16.26
2023-05-10T20:59:35.714Z,15.76
2023-05-10T21:01:39.132Z,16.34
2023-05-10T21:03:42.612Z,16.40
2023-05-10T21:05:47.421Z,15.85
2023-05-10T21:07:54.059Z,16.32
2023-05-10T21:09:57.461Z,16.33
2023-05-10T21:12:03.165Z,16.18
2023-05-10T21:14:07.773Z,16.26
2023-05-10T21:16:11.193Z,16.16
2023-05-10T21:18:14.660Z,16.14
2023-05-10T21:20:18.430Z,16.11
2023-05-10T21:22:23.444Z,15.87
2023-05-10T21:24:29.875Z,15.83
2023-05-10T21:26:33.313Z,15.81
2023-05-10T21:28:39.055Z,15.69
2023-05-10T21:30:43.578Z,15.74
2023-05-10T21:32:47.254Z,15.09
2023-05-10T21:34:50.724Z,15.69
2023-05-10T21:36:55.509Z,15.60
2023-05-10T21:39:00.447Z,15.40
2023-05-10T21:41:08.015Z,15.28
2023-05-10T21:43:12.048Z,15.48
2023-05-10T21:45:15.545Z,15.55
2023-05-10T21:47:19.121Z,15.66
2023-05-10T21:49:22.924Z,15.66
2023-05-10T21:51:26.362Z,15.70
2023-05-10T21:53:30.056Z,15.91
2023-05-10T21:55:35.048Z,15.94
2023-05-10T21:57:38.470Z,15.93
2023-05-10T21:59:41.930Z,15.77
2023-05-10T22:01:45.491Z,15.70
2023-05-10T22:03:49.102Z,15.53
2023-05-10T22:05:52.556Z,15.43
2023-05-10T22:07:55.932Z,15.44
2023-05-10T22:09:59.921Z,15.51
2023-05-10T22:12:04.897Z,15.54
2023-05-10T22:14:08.252Z,15.65
2023-05-10T22:16:11.867Z,15.74
2023-05-10T22:18:15.616Z,15.71
2023-05-10T22:20:19.514Z,15.61
2023-05-10T22:22:23.420Z,15.48
2023-05-10T22:24:27.032Z,15.56
2023-05-10T22:26:30.388Z,15.78
2023-05-10T22:28:35.174Z,16.14
2023-05-10T22:30:38.901Z,16.39
2023-05-10T22:32:42.416Z,15.97
2023-05-10T22:34:45.866Z,16.73
2023-05-10T22:36:50.526Z,16.84
2023-05-10T22:38:53.998Z,16.90
2023-05-10T22:40:57.390Z,17.03
2023-05-10T22:43:00.771Z,16.93
2023-05-10T22:45:06.325Z,16.79
2023-05-10T22:47:09.785Z,16.68
2023-05-10T22:49:13.441Z,16.51
2023-05-10T22:51:16.935Z,15.99
2023-05-10T22:53:20.309Z,16.64
2023-05-10T22:55:23.968Z,16.59
2023-05-10T22:57:27.801Z,16.43
2023-05-10T22:59:31.428Z,16.48
2023-05-10T23:01:36.470Z,16.42
2023-05-10T23:03:40.101Z,16.34
2023-05-10T23:05:43.539Z,16.32
2023-05-10T23:07:48.453Z,16.31
2023-05-10T23:09:52.354Z,16.24
2023-05-10T23:11:55.852Z,16.20
2023-05-10T23:13:59.332Z,16.05
2023-05-10T23:16:06.322Z,15.89
2023-05-10T23:18:11.238Z,15.58
2023-05-10T23:20:14.719Z,15.47
2023-05-10T23:22:18.214Z,15.30
2023-05-10T23:24:21.631Z,15.38
2023-05-10T23:26:25.087Z,15.44
2023-05-10T23:28:28.751Z,15.53
2023-05-10T23:30:32.806Z,15.08
2023-05-10T23:32:36.407Z,15.69
2023-05-10T23:34:41.269Z,15.73
2023-05-10T23:36:44.758Z,15.22
2023-05-10T23:38:48.154Z,15.67
2023-05-10T23:40:52.251Z,15.67
2023-05-10T23:42:55.652Z,15.70
2023-05-10T23:44:59.231Z,15.71
2023-05-10T23:47:02.600Z,15.77
2023-05-10T23:49:06.144Z,15.78
2023-05-10T23:51:11.008Z,15.81
2023-05-10T23:53:14.600Z,15.23
2023-05-10T23:55:18.206Z,15.83
2023-05-10T23:57:21.856Z,15.80
2023-05-10T23:59:25.526Z,15.19
